Time;durP1;ratioP1;P1;durP2;ratioP2;P2;SDS_P1;SDS_P2;PMS_P1;PMS_P2;Temp;Humidity;BMP_temperature;BMP_pressure;BME280_temperature;BME280_humidity;BME280_pressure;Samples;Min_cycle;Max_cycle;Signal;HPM_P1;HPM_P2
2022/05/06 00:01:32;;;;;;;24.30;14.30;;;;;;;19.24;100.00;98394.06;4983623;28;20041;-53
2022/05/06 00:03:57;;;;;;;28.65;15.75;;;;;;;18.54;100.00;98400.56;4984129;28;20030;-54
2022/05/06 00:06:23;;;;;;;27.15;15.60;;;;;;;17.99;100.00;98402.44;4983733;28;20041;-54
2022/05/06 00:08:48;;;;;;;20.50;11.18;;;;;;;19.34;100.00;98391.63;4984486;28;20042;-55
2022/05/06 00:11:14;;;;;;;25.92;14.05;;;;;;;18.99;100.00;98387.84;4983331;28;20121;-54
2022/05/06 00:13:39;;;;;;;18.85;10.77;;;;;;;19.01;100.00;98391.25;4984567;28;20030;-54
2022/05/06 00:16:05;;;;;;;22.48;11.85;;;;;;;19.43;100.00;98397.13;4983682;28;20045;-54
2022/05/06 00:18:31;;;;;;;16.67;10.35;;;;;;;19.27;100.00;98397.34;4984097;28;20026;-55
2022/05/06 00:20:57;;;;;;;28.98;14.82;;;;;;;18.25;100.00;98389.31;4983174;28;20057;-55
2022/05/06 00:23:23;;;;;;;23.27;13.52;;;;;;;18.01;100.00;98394.41;4984098;28;20121;-55
2022/05/06 00:25:48;;;;;;;44.25;13.30;;;;;;;18.14;100.00;98390.03;4982652;28;20121;-54
2022/05/06 00:28:13;;;;;;;30.13;15.20;;;;;;;17.64;100.00;98391.47;4983921;28;20039;-56
2022/05/06 00:30:40;;;;;;;28.58;16.38;;;;;;;17.74;100.00;98392.59;4983610;28;20046;-55
2022/05/06 00:33:07;;;;;;;26.92;15.32;;;;;;;18.06;100.00;98387.03;4983730;28;20057;-54
2022/05/06 00:35:32;;;;;;;32.30;15.27;;;;;;;17.83;100.00;98397.28;4983796;28;20042;-55
2022/05/06 00:37:58;;;;;;;27.70;15.73;;;;;;;18.02;100.00;98396.13;4983802;28;20033;-55
2022/05/06 00:40:24;;;;;;;31.17;17.23;;;;;;;17.93;100.00;98392.28;4985276;28;20035;-55
2022/05/06 00:42:51;;;;;;;30.90;16.60;;;;;;;17.42;100.00;98398.09;4983484;28;20084;-55
2022/05/06 00:45:17;;;;;;;31.58;16.88;;;;;;;17.41;100.00;98396.41;4983172;28;20118;-53
2022/05/06 00:47:42;;;;;;;28.95;14.75;;;;;;;17.37;100.00;98389.66;4983646;28;20122;-53
2022/05/06 00:50:09;;;;;;;30.13;16.10;;;;;;;17.95;100.00;98387.75;4983531;28;20034;-54
2022/05/06 00:52:36;;;;;;;22.48;13.05;;;;;;;18.56;100.00;98390.75;4983780;28;20019;-53
2022/05/06 00:55:02;;;;;;;29.75;15.98;;;;;;;17.89;100.00;98394.25;4984111;28;20022;-54
2022/05/06 00:57:28;;;;;;;43.55;16.35;;;;;;;17.78;100.00;98388.81;4982838;28;20052;-54
2022/05/06 01:02:38;;;;;;;29.30;15.70;;;;;;;18.24;100.00;98392.91;4987088;28;20133;-54
2022/05/06 01:05:03;;;;;;;30.08;15.07;;;;;;;18.34;100.00;98387.84;4987834;28;20153;-55
2022/05/06 01:07:29;;;;;;;30.15;16.67;;;;;;;18.25;100.00;98376.97;4986744;28;20038;-54
2022/05/06 01:09:54;;;;;;;26.60;15.82;;;;;;;17.93;100.00;98379.09;4987164;28;20041;-53
2022/05/06 01:12:19;;;;;;;29.98;15.75;;;;;;;17.55;100.00;98374.44;4986960;28;20066;-55
2022/05/06 01:14:45;;;;;;;32.42;16.42;;;;;;;17.20;100.00;98376.66;4987067;28;20049;-54
2022/05/06 01:17:10;;;;;;;24.25;14.02;;;;;;;17.84;100.00;98372.56;4986369;28;20039;-55
2022/05/06 01:19:36;;;;;;;31.48;15.43;;;;;;;17.18;100.00;98378.53;4987113;28;20030;-55
2022/05/06 01:22:01;;;;;;;25.48;13.30;;;;;;;18.35;100.00;98379.00;4986728;28;20050;-56
2022/05/06 01:24:26;;;;;;;27.17;14.23;;;;;;;17.68;100.00;98385.06;4987634;28;20033;-53
2022/05/06 01:26:55;;;;;;;22.80;13.57;;;;;;;18.20;100.00;98380.88;4986668;28;20396;-54
2022/05/06 01:29:23;;;;;;;27.15;14.10;;;;;;;17.88;100.00;98383.81;4987058;28;20042;-53
2022/05/06 01:31:52;;;;;;;25.58;12.88;;;;;;;18.27;100.00;98388.28;4986028;28;20034;-56
2022/05/06 01:34:17;;;;;;;18.60;10.50;;;;;;;18.69;100.00;98386.34;4987124;28;20488;-54
2022/05/06 01:36:46;;;;;;;23.98;12.27;;;;;;;17.88;100.00;98389.94;4986501;28;20046;-53
2022/05/06 01:39:18;;;;;;;25.83;13.10;;;;;;;17.96;100.00;98393.84;4987003;28;20030;-54
2022/05/06 01:41:44;;;;;;;;;;;;;;;17.63;100.00;98393.28;4986680;28;20046;-55
2022/05/06 01:44:14;;;;;;;24.17;11.85;;;;;;;18.33;100.00;98387.03;4986335;28;19913;-55
2022/05/06 01:46:39;;;;;;;23.50;9.55;;;;;;;18.16;100.00;98388.16;4986177;28;20149;-54
2022/05/06 01:49:06;;;;;;;25.42;12.93;;;;;;;17.57;100.00;98379.63;4986777;28;20113;-54
2022/05/06 01:51:33;;;;;;;18.98;9.82;;;;;;;17.78;100.00;98388.81;4986375;28;20038;-54
2022/05/06 01:53:59;;;;;;;24.85;12.38;;;;;;;17.64;100.00;98386.19;4985974;28;20050;-54
2022/05/06 01:56:24;;;;;;;26.25;11.90;;;;;;;18.74;100.00;98390.47;4986365;28;20081;-56
2022/05/06 01:58:50;;;;;;;21.30;11.10;;;;;;;18.33;100.00;98388.81;4986513;28;20045;-54
2022/05/06 02:01:15;;;;;;;23.50;11.77;;;;;;;17.54;100.00;98402.63;4985834;28;20045;-55
2022/05/06 02:06:25;;;;;;;21.98;11.20;;;;;;;18.01;100.00;98391.78;4986190;28;20069;-56
2022/05/06 02:08:51;;;;;;;25.58;13.50;;;;;;;17.00;100.00;98384.03;4987226;28;20022;-54
2022/05/06 02:11:16;;;;;;;24.48;13.50;;;;;;;17.38;100.00;98386.06;4984864;28;20053;-56
2022/05/06 02:13:41;;;;;;;24.27;10.85;;;;;;;17.95;100.00;98379.81;4986705;28;20109;-55
2022/05/06 02:16:07;;;;;;;24.90;13.32;;;;;;;17.19;100.00;98388.16;4985052;28;20072;-54
2022/05/06 02:18:33;;;;;;;19.73;11.45;;;;;;;18.61;100.00;98385.16;4985947;28;20083;-54
2022/05/06 02:21:00;;;;;;;29.70;13.63;;;;;;;17.51;100.00;98386.13;4985744;28;20411;-54
2022/05/06 02:23:26;;;;;;;26.85;12.48;;;;;;;17.73;100.00;98380.34;4986093;28;20139;-54
2022/05/06 02:25:52;;;;;;;24.42;11.95;;;;;;;17.71;100.00;98382.22;4985591;28;20117;-55
2022/05/06 02:28:18;;;;;;;22.75;12.25;;;;;;;17.13;100.00;98384.13;4986188;28;20468;-54
2022/05/06 02:33:28;;;;;;;27.60;12.65;;;;;;;17.50;100.00;98374.75;4986028;28;20036;-54
2022/05/06 02:35:54;;;;;;;26.02;12.73;;;;;;;17.30;100.00;98394.44;4985859;28;20030;-56
2022/05/06 02:38:21;;;;;;;24.23;12.55;;;;;;;18.05;100.00;98388.84;4985683;28;20692;-56
2022/05/06 02:40:47;;;;;;;21.25;12.38;;;;;;;18.39;100.00;98383.97;4985090;28;20042;-55
2022/05/06 02:43:12;;;;;;;21.65;11.55;;;;;;;18.02;100.00;98383.75;4985831;28;20316;-54
2022/05/06 02:45:37;;;;;;;17.00;7.82;;;;;;;18.52;100.00;98386.63;4985361;28;20090;-55
2022/05/06 02:48:03;;;;;;;18.77;11.35;;;;;;;18.28;100.00;98392.59;4985589;28;20030;-56
2022/05/06 02:50:29;;;;;;;19.50;9.77;;;;;;;18.65;100.00;98390.13;4984930;28;20129;-55
2022/05/06 02:52:54;;;;;;;24.23;11.40;;;;;;;17.61;100.00;98383.75;4985545;28;20026;-55
2022/05/06 02:55:21;;;;;;;21.58;11.95;;;;;;;17.22;100.00;98395.88;4985641;28;20158;-53
2022/05/06 02:57:47;;;;;;;17.85;8.18;;;;;;;18.79;100.00;98385.72;4985352;28;20165;-53
2022/05/06 03:00:13;;;;;;;20.05;11.07;;;;;;;18.08;100.00;98390.44;4985225;28;20113;-53
2022/05/06 03:02:40;;;;;;;19.42;10.20;;;;;;;17.59;100.00;98389.16;4985582;28;20069;-53
2022/05/06 03:05:06;;;;;;;22.65;10.80;;;;;;;17.13;100.00;98392.88;4985657;28;20026;-55
2022/05/06 03:07:31;;;;;;;20.08;10.82;;;;;;;16.87;100.00;98391.84;4985008;28;20091;-54
2022/05/06 03:09:56;;;;;;;26.35;11.63;;;;;;;17.31;100.00;98390.00;4985089;28;20109;-54
2022/05/06 03:12:29;;;;;;;21.02;11.52;;;;;;;17.13;100.00;98390.22;4984692;28;20034;-54
2022/05/06 03:14:55;;;;;;;24.02;12.38;;;;;;;16.83;100.00;98384.19;4985127;28;20030;-54
2022/05/06 03:17:20;;;;;;;23.08;11.13;;;;;;;16.94;100.00;98381.75;4984804;28;20093;-54
2022/05/06 03:19:46;;;;;;;21.52;11.32;;;;;;;16.55;100.00;98383.19;4983937;28;20088;-55
2022/05/06 03:22:12;;;;;;;20.08;9.60;;;;;;;17.56;100.00;98377.94;4983284;28;20154;-53
2022/05/06 03:24:38;;;;;;;25.70;11.38;;;;;;;17.34;100.00;98385.41;4985267;28;20032;-55
2022/05/06 03:27:03;;;;;;;25.58;11.90;;;;;;;16.74;100.00;98381.16;4984166;28;20046;-55
2022/05/06 03:29:29;;;;;;;23.08;10.60;;;;;;;16.52;100.00;98385.97;4984706;28;20026;-54
2022/05/06 03:31:56;;;;;;;24.45;10.38;;;;;;;16.90;100.00;98381.09;4984129;28;20073;-55
2022/05/06 03:34:21;;;;;;;18.55;9.55;;;;;;;16.94;100.00;98381.75;4984458;28;20656;-55
2022/05/06 03:36:47;;;;;;;25.83;10.55;;;;;;;16.84;100.00;98385.91;4983564;28;20052;-55
2022/05/06 03:39:13;;;;;;;19.80;9.63;;;;;;;16.65;100.00;98386.97;4984385;28;20072;-55
2022/05/06 03:41:38;;;;;;;19.38;9.50;;;;;;;16.65;100.00;98386.09;4984061;28;20034;-53
2022/05/06 03:44:06;;;;;;;21.23;10.00;;;;;;;17.14;100.00;98389.28;4984270;28;20038;-54
2022/05/06 03:46:32;;;;;;;19.20;7.78;;;;;;;17.39;100.00;98393.03;4984207;28;20035;-53
2022/05/06 03:48:59;;;;;;;13.25;7.38;;;;;;;17.87;100.00;98385.59;4984541;28;20690;-54
2022/05/06 03:51:25;;;;;;;18.02;8.25;;;;;;;17.97;100.00;98385.00;4984072;28;20101;-53
2022/05/06 03:53:52;;;;;;;14.18;6.88;;;;;;;17.65;100.00;98385.28;4985045;28;20026;-53
2022/05/06 03:56:19;;;;;;;19.33;8.50;;;;;;;17.12;100.00;98392.97;4984028;28;20066;-56
2022/05/06 03:58:44;;;;;;;21.15;7.82;;;;;;;17.52;100.00;98388.69;4984340;28;20065;-54
2022/05/06 04:01:10;;;;;;;14.95;6.57;;;;;;;17.65;100.00;98396.66;4984005;28;20070;-54
2022/05/06 04:03:36;;;;;;;14.98;7.63;;;;;;;16.96;100.00;98395.66;4984241;28;20500;-53
2022/05/06 04:06:03;;;;;;;15.88;7.85;;;;;;;17.12;100.00;98409.59;4983694;28;20535;-54
2022/05/06 04:08:28;;;;;;;16.70;7.65;;;;;;;17.40;100.00;98404.44;4984036;28;20041;-54
2022/05/06 04:10:54;;;;;;;14.80;6.68;;;;;;;18.26;100.00;98407.69;4983436;28;20037;-55
2022/05/06 04:13:19;;;;;;;15.02;6.60;;;;;;;18.50;100.00;98410.50;4983165;28;20036;-56
2022/05/06 04:15:48;;;;;;;17.77;7.07;;;;;;;18.14;100.00;98413.81;4983854;28;20050;-54
2022/05/06 04:18:14;;;;;;;17.63;7.70;;;;;;;17.67;100.00;98407.97;4984252;28;20484;-55
2022/05/06 04:23:30;;;;;;;16.25;7.95;;;;;;;17.70;100.00;98418.31;4984230;28;20819;-54
2022/05/06 04:26:04;;;;;;;16.13;6.40;;;;;;;18.23;100.00;98420.25;4983208;28;20045;-56
2022/05/06 04:28:31;;;;;;;14.73;7.45;;;;;;;17.27;100.00;98420.16;4983885;28;20022;-54
2022/05/06 04:30:57;;;;;;;19.98;8.65;;;;;;;17.83;100.00;98414.88;4982862;28;20038;-54
2022/05/06 04:33:25;;;;;;;18.73;7.53;;;;;;;17.34;100.00;98430.22;4983822;28;20030;-56
2022/05/06 04:35:50;;;;;;;17.90;8.10;;;;;;;17.54;100.00;98428.97;4982662;28;20046;-54
2022/05/06 04:38:16;;;;;;;16.00;6.60;;;;;;;18.20;100.00;98431.88;4983641;28;20038;-55
2022/05/06 04:40:42;;;;;;;17.63;7.30;;;;;;;18.40;100.00;98437.66;4983196;28;20038;-54
2022/05/06 04:43:09;;;;;;;20.73;8.48;;;;;;;17.92;100.00;98430.19;4983737;28;20463;-56
2022/05/06 04:45:41;;;;;;;15.48;8.00;;;;;;;17.41;100.00;98437.78;4983510;28;20096;-55
2022/05/06 04:48:08;;;;;;;18.85;8.18;;;;;;;17.79;100.00;98440.66;4983619;28;20733;-54
2022/05/06 04:50:37;;;;;;;20.40;8.75;;;;;;;17.35;100.00;98441.63;4983448;28;20089;-55
2022/05/06 04:53:07;;;;;;;21.05;9.98;;;;;;;16.99;100.00;98445.56;4983598;28;20225;-54
2022/05/06 04:55:38;;;;;;;13.88;8.15;;;;;;;17.54;100.00;98452.72;4983152;28;20034;-56
2022/05/06 04:58:04;;;;;;;22.30;9.03;;;;;;;17.61;100.00;98449.69;4983486;28;20054;-54
2022/05/06 05:00:30;;;;;;;12.77;5.53;;;;;;;19.29;100.00;98452.78;4983247;28;20824;-55
2022/05/06 05:02:56;;;;;;;17.73;7.63;;;;;;;17.66;100.00;98460.81;4983574;28;20039;-55
2022/05/06 05:05:21;;;;;;;14.15;6.82;;;;;;;18.00;100.00;98461.38;4998165;28;20031;-55
2022/05/06 05:07:46;;;;;;;15.68;6.45;;;;;;;18.00;100.00;98459.56;4983942;28;20486;-54
2022/05/06 05:10:12;;;;;;;15.65;6.40;;;;;;;18.32;100.00;98453.13;4982346;28;20030;-55
2022/05/06 05:12:37;;;;;;;14.82;6.63;;;;;;;18.84;100.00;98458.47;4983698;28;20014;-55
2022/05/06 05:15:03;;;;;;;18.08;6.85;;;;;;;18.03;100.00;98451.44;4982485;28;20080;-56
2022/05/06 05:17:29;;;;;;;17.48;7.95;;;;;;;17.59;100.00;98462.13;4981065;28;20069;-57
2022/05/06 05:19:54;;;;;;;16.33;7.90;;;;;;;17.76;100.00;98459.28;4982042;28;20041;-56
2022/05/06 05:22:20;;;;;;;18.50;7.80;;;;;;;17.61;100.00;98458.47;4982828;28;20054;-55
2022/05/06 05:24:46;;;;;;;14.18;6.50;;;;;;;18.39;100.00;98451.78;4983521;28;20038;-55
2022/05/06 05:27:13;;;;;;;12.45;5.72;;;;;;;19.38;100.00;98449.50;4982922;28;20065;-55
2022/05/06 05:29:39;;;;;;;15.25;7.40;;;;;;;18.33;100.00;98454.84;4983070;28;20744;-55
2022/05/06 05:32:05;;;;;;;14.70;7.10;;;;;;;17.96;100.00;98460.72;4983140;28;20043;-56
2022/05/06 05:34:30;;;;;;;17.00;7.22;;;;;;;18.48;100.00;98456.47;4983467;28;20033;-54
2022/05/06 05:36:56;;;;;;;22.52;6.97;;;;;;;18.61;100.00;98459.13;4983026;28;20049;-56
2022/05/06 05:39:21;;;;;;;19.50;8.00;;;;;;;17.32;100.00;98453.19;4982969;28;20496;-57
2022/05/06 05:41:46;;;;;;;15.07;7.05;;;;;;;17.90;100.00;98450.53;4982749;28;20042;-56
2022/05/06 05:49:39;;;;;;;16.13;7.72;;;;;;;18.77;100.00;98456.31;4987058;28;20093;-56
2022/05/06 05:52:05;;;;;;;18.73;7.75;;;;;;;18.81;100.00;98465.78;4986329;28;20038;-56
2022/05/06 05:54:30;;;;;;;19.67;7.90;;;;;;;19.12;100.00;98461.88;4986290;28;20119;-57
2022/05/06 05:56:55;;;;;;;12.43;6.15;;;;;;;19.00;100.00;98463.56;4985732;28;20152;-57
2022/05/06 05:59:22;;;;;;;17.52;7.30;;;;;;;18.92;100.00;98465.88;4986404;28;20030;-57
2022/05/06 06:01:48;;;;;;;17.38;7.05;;;;;;;19.87;100.00;98463.75;4985517;28;20042;-56
2022/05/06 06:04:13;;;;;;;19.05;6.65;;;;;;;19.56;100.00;98471.16;4989260;28;20026;-56
2022/05/06 06:06:38;;;;;;;20.27;6.55;;;;;;;19.65;100.00;98469.69;4985651;28;20045;-57
2022/05/06 06:09:03;;;;;;;17.35;6.63;;;;;;;19.75;100.00;98478.69;4985143;28;20030;-56
2022/05/06 06:11:29;;;;;;;12.93;5.30;;;;;;;20.20;100.00;98475.50;4984132;28;20093;-55
2022/05/06 06:13:54;;;;;;;13.98;5.72;;;;;;;20.05;100.00;98472.13;4985139;28;20711;-57
2022/05/06 06:16:20;;;;;;;14.57;5.68;;;;;;;20.71;100.00;98480.53;4985133;28;20046;-57
2022/05/06 06:18:47;;;;;;;17.63;6.07;;;;;;;19.45;100.00;98479.84;4985571;28;20113;-57
2022/05/06 06:21:12;;;;;;;11.73;5.20;;;;;;;19.13;100.00;98475.94;4984892;28;20038;-57
2022/05/06 06:23:37;;;;;;;13.55;5.80;;;;;;;19.63;100.00;98476.88;4984997;28;20022;-58
2022/05/06 06:26:03;;;;;;;15.85;5.75;;;;;;;20.13;100.00;98475.09;4984775;28;20050;-57
2022/05/06 06:28:28;;;;;;;14.15;5.97;;;;;;;20.52;100.00;98481.06;4985157;28;20381;-56
2022/05/06 06:30:53;;;;;;;13.77;5.88;;;;;;;20.13;100.00;98480.38;4984616;28;20174;-57
2022/05/06 06:33:19;;;;;;;14.65;5.43;;;;;;;20.07;100.00;98485.25;4985546;28;20026;-56
2022/05/06 06:35:44;;;;;;;16.00;5.70;;;;;;;19.96;100.00;98491.31;4985057;28;20117;-57
2022/05/06 06:38:09;;;;;;;17.50;5.70;;;;;;;20.33;100.00;98488.69;4984827;28;20027;-57
2022/05/06 06:40:35;;;;;;;11.07;4.40;;;;;;;20.57;92.85;98483.38;4984645;28;20034;-57
2022/05/06 06:43:04;;;;;;;11.93;4.38;;;;;;;20.49;94.87;98475.97;4985250;28;20036;-55
2022/05/06 06:45:30;;;;;;;11.88;3.90;;;;;;;20.50;91.71;98477.69;4984457;28;20699;-56
2022/05/06 06:47:58;;;;;;;11.98;4.60;;;;;;;21.21;75.34;98483.00;4985248;28;20042;-57
2022/05/06 06:50:26;;;;;;;11.50;3.80;;;;;;;21.23;74.70;98473.09;4984560;28;20046;-57
2022/05/06 06:52:52;;;;;;;9.45;3.80;;;;;;;21.24;71.46;98482.72;4985090;28;20056;-57
2022/05/06 06:55:18;;;;;;;10.15;3.70;;;;;;;21.72;70.51;98484.34;4984361;28;20539;-57
2022/05/06 06:57:44;;;;;;;10.90;3.47;;;;;;;21.51;65.49;98490.41;4985196;28;20104;-57
2022/05/06 07:00:10;;;;;;;10.57;3.42;;;;;;;21.32;67.98;98496.28;4984055;28;20945;-56
2022/05/06 07:02:39;;;;;;;12.27;4.13;;;;;;;21.35;66.53;98488.03;4984903;28;20511;-54
2022/05/06 07:05:05;;;;;;;12.25;3.80;;;;;;;21.44;67.07;98486.50;4984897;28;20058;-57
2022/05/06 07:12:58;;;;;;;10.05;3.60;;;;;;;21.86;61.83;98472.66;4985080;28;20673;-54
2022/05/06 07:15:24;;;;;;;14.43;3.75;;;;;;;21.78;59.59;98475.06;4984066;28;20038;-56
2022/05/06 07:17:49;;;;;;;12.48;3.90;;;;;;;22.28;59.37;98470.19;4984003;28;20172;-56
2022/05/06 07:20:15;;;;;;;14.00;3.60;;;;;;;21.30;61.29;98476.97;4983699;28;20018;-54
2022/05/06 07:22:41;;;;;;;13.40;3.90;;;;;;;22.16;59.43;98469.31;4984114;28;20074;-56
2022/05/06 07:25:07;;;;;;;13.13;3.95;;;;;;;21.27;61.91;98476.38;4983566;28;20065;-55
2022/05/06 07:27:36;;;;;;;10.80;4.13;;;;;;;22.41;58.29;98473.50;4982245;28;20057;-55
2022/05/06 07:30:06;;;;;;;14.90;3.80;;;;;;;22.83;54.44;98483.38;4983495;28;20057;-55
2022/05/06 07:32:32;;;;;;;12.52;3.65;;;;;;;22.77;53.98;98490.03;4983736;28;20034;-55
2022/05/06 07:34:57;;;;;;;9.98;3.60;;;;;;;22.46;59.43;98487.28;4984450;28;20053;-55
2022/05/06 07:37:23;;;;;;;13.45;3.50;;;;;;;23.79;51.06;98478.72;4983767;28;20030;-55
2022/05/06 07:39:48;;;;;;;12.13;3.92;;;;;;;23.76;49.80;98476.34;4984252;28;20054;-55
2022/05/06 07:42:14;;;;;;;9.13;3.20;;;;;;;22.94;50.41;98479.78;4983820;28;20071;-54
2022/05/06 07:44:40;;;;;;;11.15;3.33;;;;;;;23.16;48.81;98484.16;4983745;28;20105;-55
2022/05/06 07:47:05;;;;;;;9.35;3.13;;;;;;;22.46;49.92;98481.97;4983636;28;20193;-55
2022/05/06 07:49:31;;;;;;;9.38;3.15;;;;;;;22.98;46.79;98481.25;4984034;28;20018;-54
2022/05/06 07:51:56;;;;;;;10.02;3.28;;;;;;;23.27;48.47;98487.63;4983239;28;20053;-54
2022/05/06 07:54:21;;;;;;;7.22;2.90;;;;;;;24.38;46.55;98493.06;4984300;28;20077;-55
2022/05/06 07:56:47;;;;;;;13.70;3.50;;;;;;;23.42;45.91;98496.09;4983264;28;20439;-54
2022/05/06 07:59:12;;;;;;;9.02;3.20;;;;;;;24.25;46.41;98498.66;4983861;28;20038;-56
2022/05/06 08:04:36;;;;;;;9.73;3.03;;;;;;;24.64;42.51;98501.38;4984007;28;20040;-55
2022/05/06 08:07:06;;;;;;;10.85;3.15;;;;;;;23.28;42.71;98505.25;4982919;28;20070;-56
2022/05/06 08:09:33;;;;;;;10.18;3.28;;;;;;;23.32;46.90;98510.31;4983711;28;20037;-55
2022/05/06 08:11:58;;;;;;;10.73;2.97;;;;;;;23.85;40.98;98504.84;4982726;28;20575;-55
2022/05/06 08:14:24;;;;;;;10.50;3.10;;;;;;;24.10;43.37;98508.03;4984049;28;20117;-57
2022/05/06 08:16:50;;;;;;;10.85;2.90;;;;;;;24.41;43.04;98506.97;4982815;28;20038;-55
2022/05/06 08:19:16;;;;;;;15.18;3.10;;;;;;;24.54;42.62;98508.56;4983812;28;20040;-55
2022/05/06 08:21:42;;;;;;;8.52;2.53;;;;;;;24.17;41.94;98509.16;4982983;28;20068;-55
2022/05/06 08:24:08;;;;;;;9.32;2.90;;;;;;;23.51;43.62;98505.13;4983874;28;20026;-55
2022/05/06 08:26:34;;;;;;;11.55;2.95;;;;;;;23.60;44.31;98504.31;4982865;28;20041;-56
2022/05/06 08:28:59;;;;;;;11.90;3.08;;;;;;;24.02;41.73;98511.34;4983763;28;20085;-56
2022/05/06 08:31:25;;;;;;;8.10;2.80;;;;;;;23.22;42.19;98505.78;4982547;28;20062;-55
2022/05/06 08:33:50;;;;;;;16.85;3.05;;;;;;;23.31;42.21;98508.66;4983678;28;20837;-55
2022/05/06 08:36:15;;;;;;;16.17;3.00;;;;;;;22.04;42.89;98512.84;4982997;28;20042;-57
2022/05/06 08:38:42;;;;;;;8.73;2.55;;;;;;;23.47;41.24;98509.84;4983473;28;20084;-56
2022/05/06 08:41:10;;;;;;;10.65;3.00;;;;;;;23.09;42.37;98505.97;4982616;28;20114;-55
2022/05/06 08:43:35;;;;;;;9.52;2.90;;;;;;;23.82;41.81;98507.78;4983574;28;20027;-55
2022/05/06 08:51:33;;;;;;;8.75;2.80;;;;;;;25.03;40.24;98520.03;4982643;28;20519;-57
2022/05/06 08:53:59;;;;;;;10.00;2.85;;;;;;;24.50;39.45;98512.44;4983588;28;20495;-54
2022/05/06 08:56:24;;;;;;;11.73;3.20;;;;;;;24.11;41.30;98517.69;4982212;28;20101;-54
2022/05/06 08:58:49;;;;;;;7.63;2.53;;;;;;;24.16;40.03;98515.47;4983404;28;20033;-55
2022/05/06 09:01:17;;;;;;;9.27;3.10;;;;;;;25.57;39.30;98520.41;4982530;28;20041;-55
2022/05/06 09:03:49;;;;;;;8.73;2.80;;;;;;;23.98;40.90;98518.78;4983274;28;20030;-55
2022/05/06 09:06:18;;;;;;;9.23;2.70;;;;;;;24.12;40.62;98524.72;4982919;28;20044;-54
2022/05/06 09:08:45;;;;;;;6.60;2.50;;;;;;;24.45;39.86;98531.53;4983155;28;20030;-54
2022/05/06 09:11:11;;;;;;;10.20;2.92;;;;;;;24.86;38.60;98523.44;4982347;28;20154;-55
2022/05/06 09:13:36;;;;;;;10.25;3.28;;;;;;;24.10;39.77;98524.03;4982804;28;20101;-54
2022/05/06 09:16:40;;;;;;;7.60;2.53;;;;;;;23.95;38.67;98523.53;4982781;28;20046;-54
2022/05/06 09:19:11;;;;;;;9.43;3.00;;;;;;;23.85;39.71;98523.50;4998065;28;20037;-55
2022/05/06 09:21:38;;;;;;;10.35;3.05;;;;;;;24.17;38.87;98517.13;4983762;28;20084;-56
2022/05/06 09:24:19;;;;;;;14.18;4.20;;;;;;;26.26;37.80;98515.59;5001467;28;20034;-55
2022/05/06 09:27:07;;;;;;;8.57;3.15;;;;;;;24.68;38.26;98521.47;4985530;28;20041;-54
2022/05/06 09:29:42;;;;;;;11.13;2.97;;;;;;;25.57;38.61;98523.91;4986818;28;20034;-54
2022/05/06 09:32:17;;;;;;;9.70;2.78;;;;;;;24.27;39.49;98518.03;4985956;28;20053;-55
2022/05/06 09:34:44;;;;;;;12.23;3.10;;;;;;;23.94;39.08;98516.53;4986646;28;20026;-56
2022/05/06 09:37:10;;;;;;;9.15;2.95;;;;;;;26.04;37.52;98519.53;4985653;28;20042;-54
2022/05/06 09:39:39;;;;;;;7.93;3.00;;;;;;;25.73;36.97;98520.63;4986150;28;20042;-56
2022/05/06 09:42:06;;;;;;;12.02;4.03;;;;;;;25.23;38.46;98525.38;4985635;28;20042;-55
2022/05/06 09:44:33;;;;;;;6.90;2.50;;;;;;;27.32;35.90;98518.47;4986405;28;20082;-55
2022/05/06 09:47:12;;;;;;;11.25;3.20;;;;;;;25.79;37.84;98519.19;4986019;28;20049;-54
2022/05/06 09:49:43;;;;;;;11.52;3.20;;;;;;;26.14;37.38;98515.81;5001002;28;20034;-55
2022/05/06 09:52:10;;;;;;;9.20;3.00;;;;;;;25.48;36.27;98511.44;4998038;28;20070;-56
2022/05/06 09:54:35;;;;;;;8.45;3.20;;;;;;;25.30;37.91;98510.50;4986400;28;20120;-60
2022/05/06 09:57:06;;;;;;;13.02;3.28;;;;;;;25.80;37.53;98522.72;5000069;28;20411;-56
2022/05/06 09:59:31;;;;;;;7.68;3.00;;;;;;;25.85;35.96;98521.28;4985653;28;20030;-56
2022/05/06 10:01:56;;;;;;;11.80;3.40;;;;;;;26.26;36.67;98508.41;4985163;28;20456;-55
2022/05/06 10:04:22;;;;;;;10.13;3.20;;;;;;;25.81;36.23;98513.72;4986075;28;20081;-56
2022/05/06 10:06:49;;;;;;;10.52;3.03;;;;;;;25.61;37.07;98508.44;4985452;28;20078;-57
2022/05/06 10:09:22;;;;;;;11.80;3.17;;;;;;;25.70;37.06;98512.91;4985845;28;20061;-57
2022/05/06 10:11:51;;;;;;;11.18;3.53;;;;;;;25.82;37.15;98516.22;4984070;28;20126;-56
2022/05/06 10:14:17;;;;;;;7.78;3.10;;;;;;;26.15;37.07;98516.66;4985686;28;20097;-56
2022/05/06 10:16:43;;;;;;;9.27;3.08;;;;;;;26.55;37.37;98521.59;4984686;28;20046;-59
2022/05/06 10:19:44;;;;;;;8.40;3.10;;;;;;;26.61;36.52;98522.84;4985464;28;20117;-56
2022/05/06 10:22:09;;;;;;;8.07;3.05;;;;;;;26.34;36.59;98529.91;4984716;28;20038;-56
2022/05/06 10:24:52;;;;;;;10.10;3.25;;;;;;;26.36;36.73;98524.41;4985607;28;20034;-56
2022/05/06 10:32:25;;;;;;;9.73;3.50;;;;;;;27.28;35.96;98519.78;4984393;28;20034;-57
2022/05/06 10:33:13;;;;;;;10.60;3.65;;;;;;;26.38;36.48;98516.25;4984829;28;20528;-56
2022/05/06 10:35:46;;;;;;;8.63;3.20;;;;;;;25.67;36.71;98517.69;4984833;28;20129;-56
2022/05/06 10:38:25;;;;;;;7.70;3.03;;;;;;;27.04;36.76;98513.22;4985284;28;20026;-55
2022/05/06 10:40:58;;;;;;;9.18;3.30;;;;;;;27.32;34.75;98505.06;4984458;28;20110;-54
2022/05/06 10:43:41;;;;;;;7.78;3.38;;;;;;;26.94;36.36;98504.41;4984898;28;20034;-55
2022/05/06 10:46:07;;;;;;;9.07;3.30;;;;;;;27.52;35.04;98494.97;4983732;28;20189;-55
2022/05/06 10:48:33;;;;;;;10.90;3.30;;;;;;;26.02;37.91;98505.47;4985085;28;20046;-56
2022/05/06 10:51:21;;;;;;;14.90;3.30;;;;;;;25.92;37.49;98500.16;4984595;28;20053;-56
2022/05/06 10:53:47;;;;;;;10.88;2.80;;;;;;;26.73;37.10;98497.56;4984864;28;20034;-54
2022/05/06 10:56:12;;;;;;;7.97;3.22;;;;;;;25.51;38.12;98500.47;4983283;28;20039;-54
2022/05/06 10:58:38;;;;;;;10.43;3.65;;;;;;;24.83;39.29;98495.19;4984463;28;20515;-55
2022/05/06 11:01:03;;;;;;;10.75;3.40;;;;;;;26.01;38.20;98498.44;4984513;28;20069;-55
2022/05/06 11:03:29;;;;;;;8.68;3.20;;;;;;;26.98;36.55;98499.59;4984630;28;20039;-55
2022/05/06 11:05:54;;;;;;;10.38;3.40;;;;;;;25.73;40.07;98501.94;4984505;28;20912;-56
2022/05/06 11:08:21;;;;;;;9.90;3.53;;;;;;;26.73;36.50;98510.09;4984813;28;20032;-55
2022/05/06 11:10:47;;;;;;;11.23;3.50;;;;;;;26.43;36.14;98500.56;4984340;28;20038;-57
2022/05/06 11:13:12;;;;;;;9.15;3.38;;;;;;;26.96;36.36;98501.59;4984760;28;20420;-57
2022/05/06 11:15:37;;;;;;;7.28;3.28;;;;;;;26.08;37.91;98504.88;4983970;28;20788;-56
2022/05/06 11:18:05;;;;;;;7.82;3.53;;;;;;;26.83;36.16;98494.78;4984632;28;20073;-55
2022/05/06 11:20:31;;;;;;;7.30;2.97;;;;;;;26.56;37.15;98501.06;4983842;28;20038;-55
2022/05/06 11:23:07;;;;;;;11.00;3.80;;;;;;;26.68;37.35;98491.81;4983997;28;20113;-55
2022/05/06 11:25:38;;;;;;;9.52;3.58;;;;;;;26.14;38.23;98494.44;4984060;28;20031;-55
2022/05/06 11:28:13;;;;;;;8.75;3.50;;;;;;;26.08;37.75;98494.19;4984397;28;20023;-56
2022/05/06 11:30:43;;;;;;;8.65;3.45;;;;;;;25.00;38.10;98493.66;4984099;28;20038;-56
2022/05/06 11:33:08;;;;;;;7.60;3.47;;;;;;;27.47;35.99;98481.22;4982885;28;20109;-56
2022/05/06 11:35:45;;;;;;;7.80;3.35;;;;;;;26.67;37.36;98494.63;4982053;28;20133;-55
2022/05/06 11:38:11;;;;;;;9.85;3.70;;;;;;;27.47;36.09;98483.91;4983894;28;20025;-55
2022/05/06 11:40:37;;;;;;;7.93;3.50;;;;;;;26.09;37.00;98480.66;4983478;28;20038;-54
2022/05/06 11:43:20;;;;;;;9.15;3.42;;;;;;;26.94;36.56;98483.00;4983245;28;20556;-56
2022/05/06 11:48:43;;;;;;;10.70;3.40;;;;;;;27.03;37.51;98476.72;4983972;28;20093;-55
2022/05/06 11:51:11;;;;;;;10.60;3.80;;;;;;;26.41;38.12;98475.81;4983740;28;20507;-54
2022/05/06 11:53:39;;;;;;;11.02;4.00;;;;;;;25.70;38.66;98478.16;4984176;28;20025;-54
2022/05/06 11:56:05;;;;;;;10.63;4.03;;;;;;;26.00;37.24;98480.72;4983235;28;20042;-55